Volga, SD

6:24 AM CST on February 09, 2016 (GMT -0600)
KSDVOLGA2 | | Change Station
CLOSE
Current Station
Personal Weather Station
Location: Volga, SD
Elevation: 1655 ft
Nearby Weather Stations

Elev 1655 ft 44.32 °N, 96.92 °W | Updated 6 seconds ago

Clear
Clear
3.9 °F
Feels Like 4 °F
N
0.0
Wind Variable Wind from NW
Gusts 0.0 mph

Today
High -- | Low -- °F
--% Chance of Precip.
Yesterday
High -- | Low -- °F
Precip. -- in
Pressure 30.33 in
Visibility 10.0 miles
Clouds Clear
Windchill 4 °F
Dew Point -2 °F
Humidity 76%
Rainfall 0.00 in
Snow Depth Not available.
7:36 AM 5:47 PM
New Moon, 1% visible
METAR KBKX 091156Z AUTO 34009KT 10SM CLR M16/M19 A3018 RMK AO2 SLP269 60000 T11561189 11128 21156 53014 FZRANO
Pressure 30.33 in
Visibility 10.0 miles
Clouds Clear
Windchill 4 °F
Dew Point -2 °F
Humidity 76%
Rainfall 0.00 in
Snow Depth Not available.
7:36 AM 5:47 PM
New Moon, 1% visible
METAR KBKX 091156Z AUTO 34009KT 10SM CLR M16/M19 A3018 RMK AO2 SLP269 60000 T11561189 11128 21156 53014 FZRANO

10-Day Weather Forecast

Almanac

Astronomy

Feb. 09, 2016 Rise Set
Actual Time
Civil Twilight
Nautical Twilight
Astronomical Twilight
Moon
Length of Visible Light
Length of Day
Tomorrow will be .
, % of the Moon is Illuminated

Today's Extremes

State Highs State Lows

Community

WunderPhotos

Upload Photos

1,891,588 photos uploaded!

WunderBlog® & News

Nearby

Air Quality

  Air Quality AQ Index Pollutant
Not available.

Snow Depth

Station Depth Elevation

Earthquake Activity

City Distance Mag. Time & Date
Minimum magnitude displayed is 2.5.

Coastal Water Temperatures

Place Temperature

Stations

Nearby Weather Stations

Station Location Temp. Windchill Dew Point Humidity Wind Precip. Elev Updated Type
                   

Watches & Warnings

There are currently no watches in effect.